sensor_id;sensor_type;location;lat;lon;timestamp;temperature;humidity
28075;DHT22;15385;51.088;6.572;2022-08-19T00:01:44;22.60;99.90
28075;DHT22;15385;51.088;6.572;2022-08-19T00:04:17;22.60;99.90
28075;DHT22;15385;51.088;6.572;2022-08-19T00:06:48;22.60;99.90
28075;DHT22;15385;51.088;6.572;2022-08-19T00:09:20;22.60;99.90
28075;DHT22;15385;51.088;6.572;2022-08-19T00:11:53;22.50;99.90
28075;DHT22;15385;51.088;6.572;2022-08-19T00:14:26;22.50;99.90
28075;DHT22;15385;51.088;6.572;2022-08-19T00:16:58;22.50;99.90
28075;DHT22;15385;51.088;6.572;2022-08-19T00:19:29;22.40;99.90
28075;DHT22;15385;51.088;6.572;2022-08-19T00:21:59;22.40;99.90
28075;DHT22;15385;51.088;6.572;2022-08-19T00:24:30;22.30;99.90
28075;DHT22;15385;51.088;6.572;2022-08-19T00:27:01;22.30;99.90
28075;DHT22;15385;51.088;6.572;2022-08-19T00:29:32;22.20;99.90
28075;DHT22;15385;51.088;6.572;2022-08-19T00:32:03;22.30;99.90
28075;DHT22;15385;51.088;6.572;2022-08-19T00:34:34;22.30;99.90
28075;DHT22;15385;51.088;6.572;2022-08-19T00:37:05;22.30;99.90
28075;DHT22;15385;51.088;6.572;2022-08-19T00:39:36;22.30;99.90
28075;DHT22;15385;51.088;6.572;2022-08-19T00:42:06;22.10;99.90
28075;DHT22;15385;51.088;6.572;2022-08-19T00:44:37;22.20;99.90
28075;DHT22;15385;51.088;6.572;2022-08-19T00:47:08;22.20;99.90
28075;DHT22;15385;51.088;6.572;2022-08-19T00:49:48;22.20;99.90
28075;DHT22;15385;51.088;6.572;2022-08-19T00:52:28;22.10;99.90
28075;DHT22;15385;51.088;6.572;2022-08-19T00:55:00;22.10;99.90
28075;DHT22;15385;51.088;6.572;2022-08-19T00:57:38;22.10;99.90
28075;DHT22;15385;51.088;6.572;2022-08-19T01:00:14;22.10;99.90
28075;DHT22;15385;51.088;6.572;2022-08-19T01:02:45;22.10;99.90
28075;DHT22;15385;51.088;6.572;2022-08-19T01:05:20;22.00;99.90
28075;DHT22;15385;51.088;6.572;2022-08-19T01:07:53;22.00;99.90
28075;DHT22;15385;51.088;6.572;2022-08-19T01:10:28;21.90;99.90
28075;DHT22;15385;51.088;6.572;2022-08-19T01:13:01;21.90;99.90
28075;DHT22;15385;51.088;6.572;2022-08-19T01:15:38;21.90;99.90
28075;DHT22;15385;51.088;6.572;2022-08-19T01:18:12;21.90;99.90
28075;DHT22;15385;51.088;6.572;2022-08-19T01:20:43;21.90;99.90
28075;DHT22;15385;51.088;6.572;2022-08-19T01:23:15;21.90;99.90
28075;DHT22;15385;51.088;6.572;2022-08-19T01:25:51;21.80;99.90
28075;DHT22;15385;51.088;6.572;2022-08-19T01:28:25;21.70;99.90
28075;DHT22;15385;51.088;6.572;2022-08-19T01:30:58;21.70;99.90
28075;DHT22;15385;51.088;6.572;2022-08-19T01:33:29;21.60;99.90
28075;DHT22;15385;51.088;6.572;2022-08-19T01:36:13;21.60;99.90
28075;DHT22;15385;51.088;6.572;2022-08-19T01:38:48;21.50;99.90
28075;DHT22;15385;51.088;6.572;2022-08-19T01:41:19;21.50;99.90
28075;DHT22;15385;51.088;6.572;2022-08-19T01:43:52;21.50;99.90
28075;DHT22;15385;51.088;6.572;2022-08-19T01:46:23;21.40;99.90
28075;DHT22;15385;51.088;6.572;2022-08-19T01:48:53;21.40;99.90
28075;DHT22;15385;51.088;6.572;2022-08-19T01:51:24;21.40;99.90
28075;DHT22;15385;51.088;6.572;2022-08-19T01:53:55;21.40;99.90
28075;DHT22;15385;51.088;6.572;2022-08-19T01:56:26;21.30;99.90
28075;DHT22;15385;51.088;6.572;2022-08-19T01:59:03;21.20;99.90
28075;DHT22;15385;51.088;6.572;2022-08-19T02:01:34;21.10;99.90
28075;DHT22;15385;51.088;6.572;2022-08-19T02:04:05;21.10;99.90
28075;DHT22;15385;51.088;6.572;2022-08-19T02:06:36;21.10;99.90
28075;DHT22;15385;51.088;6.572;2022-08-19T02:09:07;21.10;99.90
28075;DHT22;15385;51.088;6.572;2022-08-19T02:11:41;21.10;99.90
28075;DHT22;15385;51.088;6.572;2022-08-19T02:14:12;21.20;99.90
28075;DHT22;15385;51.088;6.572;2022-08-19T02:16:43;21.20;99.90
28075;DHT22;15385;51.088;6.572;2022-08-19T02:19:13;21.30;99.90
28075;DHT22;15385;51.088;6.572;2022-08-19T02:21:44;21.20;99.90
28075;DHT22;15385;51.088;6.572;2022-08-19T02:24:15;21.10;99.90
28075;DHT22;15385;51.088;6.572;2022-08-19T02:26:46;21.10;99.90
28075;DHT22;15385;51.088;6.572;2022-08-19T02:29:16;21.00;99.90
28075;DHT22;15385;51.088;6.572;2022-08-19T02:31:47;20.90;99.90
28075;DHT22;15385;51.088;6.572;2022-08-19T02:34:18;21.00;99.90
28075;DHT22;15385;51.088;6.572;2022-08-19T02:36:49;21.00;99.90
28075;DHT22;15385;51.088;6.572;2022-08-19T02:39:19;21.10;99.90
28075;DHT22;15385;51.088;6.572;2022-08-19T02:41:50;21.10;99.90
28075;DHT22;15385;51.088;6.572;2022-08-19T02:44:22;21.20;99.90
28075;DHT22;15385;51.088;6.572;2022-08-19T02:46:52;21.30;99.90
28075;DHT22;15385;51.088;6.572;2022-08-19T02:49:23;21.30;99.90
28075;DHT22;15385;51.088;6.572;2022-08-19T02:51:54;21.20;99.90
28075;DHT22;15385;51.088;6.572;2022-08-19T02:54:25;21.20;99.90
28075;DHT22;15385;51.088;6.572;2022-08-19T02:56:55;21.10;99.90
28075;DHT22;15385;51.088;6.572;2022-08-19T02:59:30;21.10;99.90
28075;DHT22;15385;51.088;6.572;2022-08-19T03:02:00;21.10;99.90
28075;DHT22;15385;51.088;6.572;2022-08-19T03:04:31;21.20;99.90
28075;DHT22;15385;51.088;6.572;2022-08-19T03:07:01;21.20;99.90
28075;DHT22;15385;51.088;6.572;2022-08-19T03:09:32;21.20;99.90
28075;DHT22;15385;51.088;6.572;2022-08-19T03:12:04;21.20;99.90
28075;DHT22;15385;51.088;6.572;2022-08-19T03:14:36;21.20;99.90
28075;DHT22;15385;51.088;6.572;2022-08-19T03:17:06;21.10;99.90
28075;DHT22;15385;51.088;6.572;2022-08-19T03:19:41;21.10;99.90
28075;DHT22;15385;51.088;6.572;2022-08-19T03:22:16;21.10;99.90
28075;DHT22;15385;51.088;6.572;2022-08-19T03:24:46;21.10;99.90
28075;DHT22;15385;51.088;6.572;2022-08-19T03:27:17;21.10;99.90
28075;DHT22;15385;51.088;6.572;2022-08-19T03:29:48;21.00;99.90
28075;DHT22;15385;51.088;6.572;2022-08-19T03:32:22;20.90;99.90
28075;DHT22;15385;51.088;6.572;2022-08-19T03:34:52;20.80;99.90
28075;DHT22;15385;51.088;6.572;2022-08-19T03:37:23;20.80;99.90
28075;DHT22;15385;51.088;6.572;2022-08-19T03:39:53;20.90;99.90
28075;DHT22;15385;51.088;6.572;2022-08-19T03:42:24;20.90;99.90
28075;DHT22;15385;51.088;6.572;2022-08-19T03:44:57;20.90;99.90
28075;DHT22;15385;51.088;6.572;2022-08-19T03:47:28;20.90;99.90
28075;DHT22;15385;51.088;6.572;2022-08-19T03:50:03;21.00;99.90
28075;DHT22;15385;51.088;6.572;2022-08-19T03:52:36;21.10;99.90
28075;DHT22;15385;51.088;6.572;2022-08-19T03:55:08;21.10;99.90
28075;DHT22;15385;51.088;6.572;2022-08-19T03:57:38;21.10;99.90
28075;DHT22;15385;51.088;6.572;2022-08-19T04:00:12;21.20;99.90
28075;DHT22;15385;51.088;6.572;2022-08-19T04:02:48;21.20;99.90
28075;DHT22;15385;51.088;6.572;2022-08-19T04:05:19;21.20;99.90
28075;DHT22;15385;51.088;6.572;2022-08-19T04:07:49;21.20;99.90
28075;DHT22;15385;51.088;6.572;2022-08-19T04:10:20;21.20;99.90
28075;DHT22;15385;51.088;6.572;2022-08-19T04:12:50;21.20;99.90
28075;DHT22;15385;51.088;6.572;2022-08-19T04:15:21;21.20;99.90
28075;DHT22;15385;51.088;6.572;2022-08-19T04:17:51;21.20;99.90
28075;DHT22;15385;51.088;6.572;2022-08-19T04:20:22;21.20;99.90
28075;DHT22;15385;51.088;6.572;2022-08-19T04:22:56;21.30;99.90
28075;DHT22;15385;51.088;6.572;2022-08-19T04:25:36;21.20;99.90
28075;DHT22;15385;51.088;6.572;2022-08-19T04:28:07;21.20;99.90
28075;DHT22;15385;51.088;6.572;2022-08-19T04:30:42;21.10;99.90
28075;DHT22;15385;51.088;6.572;2022-08-19T04:33:15;21.00;99.90
28075;DHT22;15385;51.088;6.572;2022-08-19T04:35:47;21.00;99.90
28075;DHT22;15385;51.088;6.572;2022-08-19T04:38:20;20.90;99.90
28075;DHT22;15385;51.088;6.572;2022-08-19T04:40:52;20.80;99.90
28075;DHT22;15385;51.088;6.572;2022-08-19T04:43:41;20.80;99.90
28075;DHT22;15385;51.088;6.572;2022-08-19T04:46:18;20.80;99.90
28075;DHT22;15385;51.088;6.572;2022-08-19T04:48:49;20.70;99.90
28075;DHT22;15385;51.088;6.572;2022-08-19T04:51:20;20.80;99.90
28075;DHT22;15385;51.088;6.572;2022-08-19T04:53:54;20.80;99.90
28075;DHT22;15385;51.088;6.572;2022-08-19T04:56:28;20.80;99.90
28075;DHT22;15385;51.088;6.572;2022-08-19T04:58:59;20.80;99.90
28075;DHT22;15385;51.088;6.572;2022-08-19T05:01:34;20.80;99.90
28075;DHT22;15385;51.088;6.572;2022-08-19T05:04:07;20.80;99.90
28075;DHT22;15385;51.088;6.572;2022-08-19T05:06:39;20.90;99.90
28075;DHT22;15385;51.088;6.572;2022-08-19T05:09:09;20.90;99.90
28075;DHT22;15385;51.088;6.572;2022-08-19T05:11:40;21.00;99.90
28075;DHT22;15385;51.088;6.572;2022-08-19T05:14:11;21.00;99.90
28075;DHT22;15385;51.088;6.572;2022-08-19T05:16:43;21.00;99.90
28075;DHT22;15385;51.088;6.572;2022-08-19T05:19:13;21.10;99.90
28075;DHT22;15385;51.088;6.572;2022-08-19T05:22:05;21.10;99.90
28075;DHT22;15385;51.088;6.572;2022-08-19T05:24:54;21.10;99.90
28075;DHT22;15385;51.088;6.572;2022-08-19T05:27:25;21.10;99.90
28075;DHT22;15385;51.088;6.572;2022-08-19T05:29:56;21.20;99.90
28075;DHT22;15385;51.088;6.572;2022-08-19T05:32:26;21.20;99.90
28075;DHT22;15385;51.088;6.572;2022-08-19T05:34:57;21.20;99.90
28075;DHT22;15385;51.088;6.572;2022-08-19T05:37:28;21.30;99.90
28075;DHT22;15385;51.088;6.572;2022-08-19T05:39:59;21.40;99.90
28075;DHT22;15385;51.088;6.572;2022-08-19T05:42:29;21.30;99.90
28075;DHT22;15385;51.088;6.572;2022-08-19T05:45:01;21.40;99.90
28075;DHT22;15385;51.088;6.572;2022-08-19T05:47:31;21.30;99.90
28075;DHT22;15385;51.088;6.572;2022-08-19T05:50:03;21.20;99.90
28075;DHT22;15385;51.088;6.572;2022-08-19T05:52:36;21.20;99.90
28075;DHT22;15385;51.088;6.572;2022-08-19T05:55:08;21.30;99.90
28075;DHT22;15385;51.088;6.572;2022-08-19T05:57:40;21.30;99.90
28075;DHT22;15385;51.088;6.572;2022-08-19T06:00:11;21.30;99.90
28075;DHT22;15385;51.088;6.572;2022-08-19T06:02:45;21.30;99.90
28075;DHT22;15385;51.088;6.572;2022-08-19T06:05:16;21.30;99.90
28075;DHT22;15385;51.088;6.572;2022-08-19T06:07:46;21.30;99.90
28075;DHT22;15385;51.088;6.572;2022-08-19T06:10:17;21.40;99.90
28075;DHT22;15385;51.088;6.572;2022-08-19T06:12:48;21.40;99.90
28075;DHT22;15385;51.088;6.572;2022-08-19T06:15:18;21.50;99.90
28075;DHT22;15385;51.088;6.572;2022-08-19T06:17:49;21.60;99.90
28075;DHT22;15385;51.088;6.572;2022-08-19T06:20:23;21.60;99.90
28075;DHT22;15385;51.088;6.572;2022-08-19T06:22:53;21.60;99.90
28075;DHT22;15385;51.088;6.572;2022-08-19T06:25:24;21.50;99.90
28075;DHT22;15385;51.088;6.572;2022-08-19T06:27:55;21.50;99.90
28075;DHT22;15385;51.088;6.572;2022-08-19T06:30:25;21.40;99.90
28075;DHT22;15385;51.088;6.572;2022-08-19T06:32:56;21.50;99.90
28075;DHT22;15385;51.088;6.572;2022-08-19T06:35:27;21.40;99.90
28075;DHT22;15385;51.088;6.572;2022-08-19T06:37:59;21.30;99.90
28075;DHT22;15385;51.088;6.572;2022-08-19T06:40:30;21.20;99.90
28075;DHT22;15385;51.088;6.572;2022-08-19T06:43:01;21.20;99.90
28075;DHT22;15385;51.088;6.572;2022-08-19T06:45:32;21.20;99.90
28075;DHT22;15385;51.088;6.572;2022-08-19T06:48:04;21.50;99.90
28075;DHT22;15385;51.088;6.572;2022-08-19T06:50:38;21.70;99.90
28075;DHT22;15385;51.088;6.572;2022-08-19T06:53:09;21.80;99.90
28075;DHT22;15385;51.088;6.572;2022-08-19T06:55:40;21.60;99.90
28075;DHT22;15385;51.088;6.572;2022-08-19T06:58:11;21.70;99.90
28075;DHT22;15385;51.088;6.572;2022-08-19T07:00:41;21.60;99.90
28075;DHT22;15385;51.088;6.572;2022-08-19T07:03:12;21.70;99.90
28075;DHT22;15385;51.088;6.572;2022-08-19T07:05:43;21.80;99.90
28075;DHT22;15385;51.088;6.572;2022-08-19T07:08:13;21.90;99.90
28075;DHT22;15385;51.088;6.572;2022-08-19T07:10:45;21.70;99.90
28075;DHT22;15385;51.088;6.572;2022-08-19T07:13:16;21.60;99.90
28075;DHT22;15385;51.088;6.572;2022-08-19T07:15:47;21.80;99.90
28075;DHT22;15385;51.088;6.572;2022-08-19T07:18:20;21.80;99.90
28075;DHT22;15385;51.088;6.572;2022-08-19T07:21:02;21.80;99.90
28075;DHT22;15385;51.088;6.572;2022-08-19T07:23:33;22.00;99.90
28075;DHT22;15385;51.088;6.572;2022-08-19T07:28:37;22.40;99.90
28075;DHT22;15385;51.088;6.572;2022-08-19T07:31:13;22.50;99.90
28075;DHT22;15385;51.088;6.572;2022-08-19T07:33:46;22.50;99.90
28075;DHT22;15385;51.088;6.572;2022-08-19T07:36:20;22.70;99.90
28075;DHT22;15385;51.088;6.572;2022-08-19T07:38:52;22.60;99.90
28075;DHT22;15385;51.088;6.572;2022-08-19T07:41:25;22.70;99.90
28075;DHT22;15385;51.088;6.572;2022-08-19T07:44:00;22.90;99.90
28075;DHT22;15385;51.088;6.572;2022-08-19T07:46:34;22.90;99.90
28075;DHT22;15385;51.088;6.572;2022-08-19T07:49:05;23.00;99.90
28075;DHT22;15385;51.088;6.572;2022-08-19T07:51:36;23.30;99.90
28075;DHT22;15385;51.088;6.572;2022-08-19T07:54:07;23.50;99.90
28075;DHT22;15385;51.088;6.572;2022-08-19T07:56:37;23.60;99.90
28075;DHT22;15385;51.088;6.572;2022-08-19T07:59:08;23.40;99.90
28075;DHT22;15385;51.088;6.572;2022-08-19T08:01:39;23.50;99.90
28075;DHT22;15385;51.088;6.572;2022-08-19T08:04:10;23.60;99.90
28075;DHT22;15385;51.088;6.572;2022-08-19T08:06:59;23.50;99.90
28075;DHT22;15385;51.088;6.572;2022-08-19T08:09:48;23.30;99.90
28075;DHT22;15385;51.088;6.572;2022-08-19T08:12:26;23.50;99.90
28075;DHT22;15385;51.088;6.572;2022-08-19T08:15:00;23.90;99.90
28075;DHT22;15385;51.088;6.572;2022-08-19T08:17:34;24.10;99.90
28075;DHT22;15385;51.088;6.572;2022-08-19T08:20:06;23.90;99.90
28075;DHT22;15385;51.088;6.572;2022-08-19T08:22:37;23.80;99.90
28075;DHT22;15385;51.088;6.572;2022-08-19T08:25:31;23.70;99.90
28075;DHT22;15385;51.088;6.572;2022-08-19T08:28:02;23.80;99.90
28075;DHT22;15385;51.088;6.572;2022-08-19T08:30:33;24.00;99.90
28075;DHT22;15385;51.088;6.572;2022-08-19T08:33:05;24.00;99.90
28075;DHT22;15385;51.088;6.572;2022-08-19T08:35:36;24.20;99.90
28075;DHT22;15385;51.088;6.572;2022-08-19T08:38:06;24.50;99.90
28075;DHT22;15385;51.088;6.572;2022-08-19T08:43:19;24.80;99.90
28075;DHT22;15385;51.088;6.572;2022-08-19T08:51:12;25.70;99.90
28075;DHT22;15385;51.088;6.572;2022-08-19T08:53:44;25.90;99.90
28075;DHT22;15385;51.088;6.572;2022-08-19T08:56:15;26.00;99.90
28075;DHT22;15385;51.088;6.572;2022-08-19T08:58:49;25.80;99.90
28075;DHT22;15385;51.088;6.572;2022-08-19T09:01:21;25.70;99.90
28075;DHT22;15385;51.088;6.572;2022-08-19T09:03:52;26.00;99.90
28075;DHT22;15385;51.088;6.572;2022-08-19T09:06:37;26.30;99.90
28075;DHT22;15385;51.088;6.572;2022-08-19T09:09:20;26.40;99.90
28075;DHT22;15385;51.088;6.572;2022-08-19T09:14:50;26.90;99.90
28075;DHT22;15385;51.088;6.572;2022-08-19T09:17:22;27.10;99.90
28075;DHT22;15385;51.088;6.572;2022-08-19T09:20:05;27.30;99.90
28075;DHT22;15385;51.088;6.572;2022-08-19T09:22:39;27.40;99.90
28075;DHT22;15385;51.088;6.572;2022-08-19T09:25:11;27.50;99.90
28075;DHT22;15385;51.088;6.572;2022-08-19T09:27:42;27.60;99.90
28075;DHT22;15385;51.088;6.572;2022-08-19T09:30:15;27.20;99.90
28075;DHT22;15385;51.088;6.572;2022-08-19T09:32:46;27.30;99.90
28075;DHT22;15385;51.088;6.572;2022-08-19T09:35:19;27.00;99.90
28075;DHT22;15385;51.088;6.572;2022-08-19T09:37:52;27.20;99.90
28075;DHT22;15385;51.088;6.572;2022-08-19T09:40:23;27.40;99.90
28075;DHT22;15385;51.088;6.572;2022-08-19T09:42:53;27.50;99.90
28075;DHT22;15385;51.088;6.572;2022-08-19T09:45:24;27.60;99.90
28075;DHT22;15385;51.088;6.572;2022-08-19T09:47:55;27.70;99.90
28075;DHT22;15385;51.088;6.572;2022-08-19T09:50:26;27.60;99.90
28075;DHT22;15385;51.088;6.572;2022-08-19T09:52:56;27.40;99.90
28075;DHT22;15385;51.088;6.572;2022-08-19T09:55:29;27.40;99.90
28075;DHT22;15385;51.088;6.572;2022-08-19T09:58:00;27.50;99.90
28075;DHT22;15385;51.088;6.572;2022-08-19T10:00:31;27.70;99.90
28075;DHT22;15385;51.088;6.572;2022-08-19T10:03:02;27.50;99.90
28075;DHT22;15385;51.088;6.572;2022-08-19T10:05:32;27.30;99.90
28075;DHT22;15385;51.088;6.572;2022-08-19T10:08:23;27.60;99.90
28075;DHT22;15385;51.088;6.572;2022-08-19T10:10:54;27.50;99.90
28075;DHT22;15385;51.088;6.572;2022-08-19T10:13:26;27.30;99.90
28075;DHT22;15385;51.088;6.572;2022-08-19T10:16:04;27.30;99.90
28075;DHT22;15385;51.088;6.572;2022-08-19T10:18:36;27.20;99.90
28075;DHT22;15385;51.088;6.572;2022-08-19T10:21:14;26.90;99.90
28075;DHT22;15385;51.088;6.572;2022-08-19T10:23:48;26.80;99.90
28075;DHT22;15385;51.088;6.572;2022-08-19T10:26:20;26.80;99.90
28075;DHT22;15385;51.088;6.572;2022-08-19T10:28:51;26.90;99.90
28075;DHT22;15385;51.088;6.572;2022-08-19T10:31:25;27.20;99.90
28075;DHT22;15385;51.088;6.572;2022-08-19T10:33:56;27.40;99.90
28075;DHT22;15385;51.088;6.572;2022-08-19T10:36:34;27.20;99.90
28075;DHT22;15385;51.088;6.572;2022-08-19T10:39:07;27.20;99.90
28075;DHT22;15385;51.088;6.572;2022-08-19T10:41:38;27.40;99.90
28075;DHT22;15385;51.088;6.572;2022-08-19T10:44:10;27.60;99.90
28075;DHT22;15385;51.088;6.572;2022-08-19T10:46:41;27.70;99.90
28075;DHT22;15385;51.088;6.572;2022-08-19T10:49:13;28.00;99.90
28075;DHT22;15385;51.088;6.572;2022-08-19T10:51:43;28.10;99.90
28075;DHT22;15385;51.088;6.572;2022-08-19T10:54:33;28.00;99.90
28075;DHT22;15385;51.088;6.572;2022-08-19T10:57:22;28.00;99.90
28075;DHT22;15385;51.088;6.572;2022-08-19T10:59:59;28.20;99.90
28075;DHT22;15385;51.088;6.572;2022-08-19T11:02:29;28.30;99.90
28075;DHT22;15385;51.088;6.572;2022-08-19T11:05:03;28.30;99.90
28075;DHT22;15385;51.088;6.572;2022-08-19T11:07:33;28.20;99.90
28075;DHT22;15385;51.088;6.572;2022-08-19T11:10:04;28.10;99.90
28075;DHT22;15385;51.088;6.572;2022-08-19T11:12:38;28.20;99.90
28075;DHT22;15385;51.088;6.572;2022-08-19T11:15:12;28.60;99.90
28075;DHT22;15385;51.088;6.572;2022-08-19T11:17:42;28.80;99.90
28075;DHT22;15385;51.088;6.572;2022-08-19T11:20:14;29.10;99.90
28075;DHT22;15385;51.088;6.572;2022-08-19T11:22:45;29.10;99.90
28075;DHT22;15385;51.088;6.572;2022-08-19T11:25:15;29.40;99.90
28075;DHT22;15385;51.088;6.572;2022-08-19T11:27:46;29.50;99.90
28075;DHT22;15385;51.088;6.572;2022-08-19T11:30:17;29.60;99.90
28075;DHT22;15385;51.088;6.572;2022-08-19T11:32:47;29.80;99.90
28075;DHT22;15385;51.088;6.572;2022-08-19T11:35:18;30.00;99.90
28075;DHT22;15385;51.088;6.572;2022-08-19T11:37:49;30.10;99.90
28075;DHT22;15385;51.088;6.572;2022-08-19T11:40:20;29.80;99.90
28075;DHT22;15385;51.088;6.572;2022-08-19T11:42:50;29.70;99.90
28075;DHT22;15385;51.088;6.572;2022-08-19T11:45:27;29.90;99.90
28075;DHT22;15385;51.088;6.572;2022-08-19T11:47:58;29.70;99.90
28075;DHT22;15385;51.088;6.572;2022-08-19T11:50:28;29.80;99.90
28075;DHT22;15385;51.088;6.572;2022-08-19T11:52:59;30.00;99.90
28075;DHT22;15385;51.088;6.572;2022-08-19T11:55:30;29.80;99.90
28075;DHT22;15385;51.088;6.572;2022-08-19T11:58:00;29.70;99.90
28075;DHT22;15385;51.088;6.572;2022-08-19T12:00:32;29.50;99.90
28075;DHT22;15385;51.088;6.572;2022-08-19T12:03:03;29.50;99.90
28075;DHT22;15385;51.088;6.572;2022-08-19T12:05:36;29.80;99.90
28075;DHT22;15385;51.088;6.572;2022-08-19T12:08:06;29.90;99.90
28075;DHT22;15385;51.088;6.572;2022-08-19T12:10:37;30.00;99.90
28075;DHT22;15385;51.088;6.572;2022-08-19T12:13:11;30.10;99.90
28075;DHT22;15385;51.088;6.572;2022-08-19T12:15:44;30.00;99.90
28075;DHT22;15385;51.088;6.572;2022-08-19T12:18:15;30.40;99.90
28075;DHT22;15385;51.088;6.572;2022-08-19T12:20:46;30.90;99.90
28075;DHT22;15385;51.088;6.572;2022-08-19T12:23:17;30.90;99.90
28075;DHT22;15385;51.088;6.572;2022-08-19T12:25:48;30.90;99.60
28075;DHT22;15385;51.088;6.572;2022-08-19T12:28:22;30.90;98.90
28075;DHT22;15385;51.088;6.572;2022-08-19T12:30:53;30.90;99.90
28075;DHT22;15385;51.088;6.572;2022-08-19T12:33:23;30.90;98.80
28075;DHT22;15385;51.088;6.572;2022-08-19T12:36:01;30.80;98.90
28075;DHT22;15385;51.088;6.572;2022-08-19T12:38:33;30.70;97.60
28075;DHT22;15385;51.088;6.572;2022-08-19T12:41:08;30.70;98.10
28075;DHT22;15385;51.088;6.572;2022-08-19T12:43:40;31.00;97.80
28075;DHT22;15385;51.088;6.572;2022-08-19T12:46:12;31.40;97.30
28075;DHT22;15385;51.088;6.572;2022-08-19T12:48:42;31.60;96.60
28075;DHT22;15385;51.088;6.572;2022-08-19T12:51:16;31.50;97.00
28075;DHT22;15385;51.088;6.572;2022-08-19T12:53:47;31.50;98.00
28075;DHT22;15385;51.088;6.572;2022-08-19T12:56:19;31.50;97.70
28075;DHT22;15385;51.088;6.572;2022-08-19T12:58:50;31.20;96.80
28075;DHT22;15385;51.088;6.572;2022-08-19T13:01:20;31.00;96.70
28075;DHT22;15385;51.088;6.572;2022-08-19T13:03:51;30.80;96.20
28075;DHT22;15385;51.088;6.572;2022-08-19T13:06:22;30.80;96.40
28075;DHT22;15385;51.088;6.572;2022-08-19T13:08:53;30.60;96.70
28075;DHT22;15385;51.088;6.572;2022-08-19T13:11:24;30.50;96.30
28075;DHT22;15385;51.088;6.572;2022-08-19T13:13:54;30.50;97.30
28075;DHT22;15385;51.088;6.572;2022-08-19T13:16:25;30.90;96.60
28075;DHT22;15385;51.088;6.572;2022-08-19T13:18:57;31.10;96.00
28075;DHT22;15385;51.088;6.572;2022-08-19T13:21:28;30.70;96.40
28075;DHT22;15385;51.088;6.572;2022-08-19T13:24:01;30.80;96.50
28075;DHT22;15385;51.088;6.572;2022-08-19T13:26:32;31.00;95.30
28075;DHT22;15385;51.088;6.572;2022-08-19T13:29:02;31.00;94.20
28075;DHT22;15385;51.088;6.572;2022-08-19T13:31:51;31.10;94.20
28075;DHT22;15385;51.088;6.572;2022-08-19T13:34:41;30.80;94.80
28075;DHT22;15385;51.088;6.572;2022-08-19T13:37:11;31.00;95.20
28075;DHT22;15385;51.088;6.572;2022-08-19T13:39:45;31.20;93.80
28075;DHT22;15385;51.088;6.572;2022-08-19T13:42:17;31.10;93.60
28075;DHT22;15385;51.088;6.572;2022-08-19T13:44:48;31.20;93.90
28075;DHT22;15385;51.088;6.572;2022-08-19T13:47:18;31.60;93.60
28075;DHT22;15385;51.088;6.572;2022-08-19T13:49:50;31.60;92.10
28075;DHT22;15385;51.088;6.572;2022-08-19T13:52:20;31.40;92.20
28075;DHT22;15385;51.088;6.572;2022-08-19T13:54:51;31.50;91.10
28075;DHT22;15385;51.088;6.572;2022-08-19T13:57:21;31.50;90.90
28075;DHT22;15385;51.088;6.572;2022-08-19T13:59:52;31.40;91.70
28075;DHT22;15385;51.088;6.572;2022-08-19T14:02:23;31.70;91.80
28075;DHT22;15385;51.088;6.572;2022-08-19T14:04:53;32.00;91.80
28075;DHT22;15385;51.088;6.572;2022-08-19T14:07:24;32.00;91.20
28075;DHT22;15385;51.088;6.572;2022-08-19T14:09:54;32.20;91.00
28075;DHT22;15385;51.088;6.572;2022-08-19T14:12:25;32.30;91.00
28075;DHT22;15385;51.088;6.572;2022-08-19T14:14:55;32.20;90.70
28075;DHT22;15385;51.088;6.572;2022-08-19T14:17:26;32.20;90.20
28075;DHT22;15385;51.088;6.572;2022-08-19T14:19:57;32.10;89.40
28075;DHT22;15385;51.088;6.572;2022-08-19T14:22:29;31.70;88.90
28075;DHT22;15385;51.088;6.572;2022-08-19T14:25:00;31.60;90.60
28075;DHT22;15385;51.088;6.572;2022-08-19T14:27:40;31.80;90.00
28075;DHT22;15385;51.088;6.572;2022-08-19T14:30:12;31.70;90.00
28075;DHT22;15385;51.088;6.572;2022-08-19T14:32:44;31.70;90.20
28075;DHT22;15385;51.088;6.572;2022-08-19T14:35:15;31.70;90.50
28075;DHT22;15385;51.088;6.572;2022-08-19T14:37:45;32.00;90.60
28075;DHT22;15385;51.088;6.572;2022-08-19T14:40:19;31.60;90.70
28075;DHT22;15385;51.088;6.572;2022-08-19T14:42:52;31.30;91.40
28075;DHT22;15385;51.088;6.572;2022-08-19T14:45:22;31.50;92.20
28075;DHT22;15385;51.088;6.572;2022-08-19T14:47:53;31.70;91.80
28075;DHT22;15385;51.088;6.572;2022-08-19T14:50:23;31.50;92.40
28075;DHT22;15385;51.088;6.572;2022-08-19T14:53:01;31.40;92.70
28075;DHT22;15385;51.088;6.572;2022-08-19T14:55:33;31.30;93.00
28075;DHT22;15385;51.088;6.572;2022-08-19T14:58:04;31.30;93.40
28075;DHT22;15385;51.088;6.572;2022-08-19T15:00:35;31.30;93.60
28075;DHT22;15385;51.088;6.572;2022-08-19T15:03:05;31.20;93.20
28075;DHT22;15385;51.088;6.572;2022-08-19T15:05:36;31.40;93.10
28075;DHT22;15385;51.088;6.572;2022-08-19T15:08:06;31.80;93.00
28075;DHT22;15385;51.088;6.572;2022-08-19T15:10:40;32.20;92.50
28075;DHT22;15385;51.088;6.572;2022-08-19T15:13:10;32.30;91.90
28075;DHT22;15385;51.088;6.572;2022-08-19T15:15:41;32.50;92.70
28075;DHT22;15385;51.088;6.572;2022-08-19T15:18:11;32.50;92.40
28075;DHT22;15385;51.088;6.572;2022-08-19T15:20:42;31.80;93.60
28075;DHT22;15385;51.088;6.572;2022-08-19T15:23:14;31.40;94.40
28075;DHT22;15385;51.088;6.572;2022-08-19T15:25:45;31.70;95.00
28075;DHT22;15385;51.088;6.572;2022-08-19T15:28:16;31.80;94.80
28075;DHT22;15385;51.088;6.572;2022-08-19T15:30:47;31.50;94.90
28075;DHT22;15385;51.088;6.572;2022-08-19T15:33:18;31.20;94.10
28075;DHT22;15385;51.088;6.572;2022-08-19T15:35:50;30.70;94.60
28075;DHT22;15385;51.088;6.572;2022-08-19T15:38:23;30.50;95.30
28075;DHT22;15385;51.088;6.572;2022-08-19T15:40:56;30.30;96.00
28075;DHT22;15385;51.088;6.572;2022-08-19T15:46:25;29.80;96.80
28075;DHT22;15385;51.088;6.572;2022-08-19T15:48:56;29.70;97.30
28075;DHT22;15385;51.088;6.572;2022-08-19T15:51:29;29.70;97.70
28075;DHT22;15385;51.088;6.572;2022-08-19T15:54:00;29.50;98.10
28075;DHT22;15385;51.088;6.572;2022-08-19T15:56:31;29.40;98.60
28075;DHT22;15385;51.088;6.572;2022-08-19T15:59:20;29.30;99.10
28075;DHT22;15385;51.088;6.572;2022-08-19T16:02:09;29.30;99.40
28075;DHT22;15385;51.088;6.572;2022-08-19T16:04:58;29.30;99.70
28075;DHT22;15385;51.088;6.572;2022-08-19T16:07:48;29.30;99.90
28075;DHT22;15385;51.088;6.572;2022-08-19T16:10:18;29.30;99.90
28075;DHT22;15385;51.088;6.572;2022-08-19T16:12:49;29.20;99.90
28075;DHT22;15385;51.088;6.572;2022-08-19T16:15:19;29.20;99.90
28075;DHT22;15385;51.088;6.572;2022-08-19T16:17:50;29.10;99.90
28075;DHT22;15385;51.088;6.572;2022-08-19T16:20:20;29.10;99.90